createdAt,value
2023-03-20T00:02:02.450Z,74.20
2023-03-20T00:04:43.897Z,74.00
2023-03-20T00:11:11.912Z,73.80
2023-03-20T00:13:43.450Z,73.70
2023-03-20T00:19:30.487Z,73.40
2023-03-20T00:25:16.996Z,73.70
2023-03-20T00:34:39.140Z,73.60
2023-03-20T00:37:39.966Z,73.40
2023-03-20T00:40:35.570Z,73.40
2023-03-20T00:43:55.734Z,72.90
2023-03-20T00:46:54.475Z,73.10
2023-03-20T00:49:27.083Z,73.30
2023-03-20T00:51:55.933Z,73.20
2023-03-20T00:54:36.367Z,73.10
2023-03-20T00:58:02.637Z,73.20
2023-03-20T01:04:09.420Z,73.10
2023-03-20T01:07:04.169Z,73.20
2023-03-20T01:09:49.299Z,73.30
2023-03-20T01:12:29.865Z,72.80
2023-03-20T01:15:08.543Z,72.70
2023-03-20T01:17:56.112Z,72.70
2023-03-20T01:20:38.684Z,72.50
2023-03-20T01:23:16.891Z,72.90
2023-03-20T01:26:03.471Z,73.00
2023-03-20T01:31:51.318Z,72.50
2023-03-20T01:34:33.709Z,72.30
2023-03-20T01:37:50.626Z,72.40
2023-03-20T01:40:51.715Z,73.00
2023-03-20T01:44:02.424Z,72.50
2023-03-20T01:47:19.804Z,72.40
2023-03-20T01:50:40.649Z,72.50
2023-03-20T01:54:03.718Z,72.40
2023-03-20T02:01:14.603Z,72.40
2023-03-20T02:07:23.923Z,72.60
2023-03-20T02:10:03.910Z,72.20
2023-03-20T02:13:28.932Z,72.30
2023-03-20T02:16:51.307Z,72.80
2023-03-20T02:20:03.377Z,72.30
2023-03-20T02:23:21.411Z,72.30
2023-03-20T02:26:53.074Z,72.30
2023-03-20T02:30:34.914Z,72.50
2023-03-20T02:34:02.697Z,72.20
2023-03-20T02:38:12.658Z,72.60
2023-03-20T02:41:48.906Z,72.50
2023-03-20T02:47:44.083Z,72.50
2023-03-20T02:57:42.157Z,72.10
2023-03-20T03:01:03.342Z,72.10
2023-03-20T03:04:07.327Z,72.20
2023-03-20T03:10:14.351Z,72.40
2023-03-20T03:12:55.986Z,71.90
2023-03-20T03:16:05.667Z,72.30
2023-03-20T03:22:47.898Z,72.10
2023-03-20T03:28:57.218Z,72.30
2023-03-20T03:32:22.280Z,72.10
2023-03-20T03:35:06.237Z,72.50
2023-03-20T03:37:53.807Z,72.20
2023-03-20T03:47:17.860Z,72.60
2023-03-20T03:50:04.516Z,72.60
2023-03-20T03:57:40.213Z,72.30
2023-03-20T04:00:43.482Z,72.10
2023-03-20T04:03:55.078Z,72.30
2023-03-20T04:06:57.368Z,72.40
2023-03-20T04:09:37.948Z,72.50
2023-03-20T04:12:54.440Z,72.30
2023-03-20T04:15:48.959Z,72.40
2023-03-20T04:19:20.672Z,72.60
2023-03-20T04:22:25.282Z,72.50
2023-03-20T04:25:31.687Z,72.50
2023-03-20T04:28:25.233Z,72.70
2023-03-20T04:31:33.761Z,72.70
2023-03-20T04:34:28.080Z,72.70
2023-03-20T04:37:55.024Z,73.00
2023-03-20T04:40:58.212Z,72.70
2023-03-20T04:43:47.023Z,73.20
2023-03-20T04:46:44.373Z,72.80
2023-03-20T04:49:31.446Z,72.80
2023-03-20T04:52:29.355Z,72.90
2023-03-20T04:55:29.882Z,72.80
2023-03-20T05:01:22.489Z,73.70
2023-03-20T05:04:01.244Z,73.10
2023-03-20T05:07:09.607Z,72.80
2023-03-20T05:10:55.634Z,72.80
2023-03-20T05:14:57.473Z,72.60
2023-03-20T05:18:13.468Z,72.60
2023-03-20T05:21:17.082Z,72.20
2023-03-20T05:24:19.608Z,72.60
2023-03-20T05:27:12.176Z,72.60
2023-03-20T05:53:12.053Z,72.30
2023-03-20T06:47:21.704Z,71.50
2023-03-20T06:53:42.391Z,72.10
2023-03-20T06:56:46.432Z,71.70
2023-03-20T06:59:52.497Z,71.90
2023-03-20T08:12:25.287Z,69.10
2023-03-20T08:14:59.610Z,68.80
2023-03-20T08:17:58.667Z,69.10
2023-03-20T08:21:22.578Z,68.70
2023-03-20T08:24:38.456Z,68.70
2023-03-20T08:27:28.127Z,69.00
2023-03-20T08:30:21.468Z,68.60
2023-03-20T08:33:26.166Z,68.70
2023-03-20T08:36:32.317Z,68.50
2023-03-20T08:42:02.464Z,68.90
2023-03-20T08:45:03.394Z,68.60
2023-03-20T08:47:56.304Z,68.20
2023-03-20T08:50:42.202Z,68.00
2023-03-20T08:56:11.796Z,68.80
2023-03-20T08:59:00.883Z,69.00
2023-03-20T09:01:57.812Z,68.70
2023-03-20T09:04:54.900Z,68.90
2023-03-20T09:07:54.919Z,69.30
2023-03-20T09:10:39.115Z,68.80
2023-03-20T09:13:38.768Z,69.20
2023-03-20T09:16:24.610Z,68.30
2023-03-20T09:19:50.302Z,68.10
2023-03-20T09:22:50.803Z,67.80
2023-03-20T09:25:43.242Z,67.60
2023-03-20T09:28:38.030Z,67.80
2023-03-20T09:36:06.640Z,68.00
2023-03-20T09:47:53.833Z,67.70
2023-03-20T09:55:23.853Z,67.50
2023-03-20T09:58:48.720Z,67.40
2023-03-20T10:01:33.852Z,67.80
2023-03-20T10:04:15.651Z,68.00
2023-03-20T10:14:48.799Z,68.60
2023-03-20T10:22:32.848Z,68.10
2023-03-20T10:33:25.906Z,68.70
2023-03-20T10:40:29.806Z,68.40
2023-03-20T10:43:43.466Z,67.90
2023-03-20T10:46:44.750Z,68.00
2023-03-20T10:49:20.619Z,67.70
2023-03-20T10:52:10.999Z,67.30
2023-03-20T10:58:29.014Z,67.40
2023-03-20T11:01:28.587Z,67.20
2023-03-20T11:04:23.447Z,66.70
2023-03-20T11:14:34.480Z,66.10
2023-03-20T11:17:41.029Z,67.00
2023-03-20T11:20:40.625Z,66.60
2023-03-20T11:23:40.718Z,66.90
2023-03-20T11:26:28.425Z,66.60
2023-03-20T11:29:26.946Z,66.70
2023-03-20T11:32:26.871Z,66.90
2023-03-20T11:35:46.193Z,67.00
2023-03-20T11:38:45.419Z,67.20
2023-03-20T11:41:53.200Z,67.10
2023-03-20T11:48:29.950Z,67.40
2023-03-20T11:51:29.241Z,67.00
2023-03-20T11:54:23.623Z,66.90
2023-03-20T11:57:10.285Z,66.80
2023-03-20T12:11:38.983Z,65.60
2023-03-20T12:14:55.930Z,65.50
2023-03-20T12:19:29.455Z,65.60
2023-03-20T12:22:28.878Z,66.10
2023-03-20T12:25:39.779Z,66.60
2023-03-20T12:28:39.740Z,66.30
2023-03-20T12:31:41.396Z,66.10
2023-03-20T12:43:26.708Z,66.10
2023-03-20T12:46:19.821Z,66.50
2023-03-20T12:49:25.495Z,66.70
2023-03-20T12:52:35.827Z,66.80
2023-03-20T13:03:33.345Z,67.20
2023-03-20T13:06:33.602Z,67.30
2023-03-20T13:10:19.878Z,67.60
2023-03-20T13:17:11.613Z,66.00
2023-03-20T13:20:48.950Z,65.90
2023-03-20T13:24:16.120Z,65.80
2023-03-20T13:27:30.350Z,66.20
2023-03-20T13:30:29.681Z,66.00
2023-03-20T13:37:24.815Z,66.00
2023-03-20T13:47:12.799Z,66.20
2023-03-20T13:49:54.079Z,66.30
2023-03-20T13:52:55.042Z,66.20
2023-03-20T13:55:44.719Z,66.60
2023-03-20T13:58:54.640Z,66.30
2023-03-20T14:01:46.830Z,66.50
2023-03-20T14:04:33.816Z,66.80
2023-03-20T14:07:31.018Z,66.90
2023-03-20T14:09:59.272Z,67.00
2023-03-20T14:13:00.768Z,66.90
2023-03-20T14:19:12.218Z,67.10
2023-03-20T14:21:56.294Z,66.80
2023-03-20T14:24:53.581Z,67.10
2023-03-20T14:27:45.715Z,66.80
2023-03-20T14:30:57.116Z,66.90
2023-03-20T14:34:18.295Z,67.10
2023-03-20T14:37:09.440Z,67.10
2023-03-20T14:43:33.320Z,67.30
2023-03-20T14:46:33.814Z,67.40
2023-03-20T14:52:42.310Z,68.70
2023-03-20T14:56:02.413Z,68.70
2023-03-20T14:59:32.329Z,69.30
2023-03-20T15:06:29.278Z,70.30
2023-03-20T15:12:46.528Z,70.80
2023-03-20T15:15:46.065Z,70.80
2023-03-20T15:18:48.553Z,71.90
2023-03-20T15:21:38.297Z,71.60
2023-03-20T15:28:03.827Z,71.90
2023-03-20T15:30:54.559Z,72.20
2023-03-20T15:33:41.543Z,72.00
2023-03-20T15:36:21.059Z,72.60
2023-03-20T15:39:14.880Z,72.50
2023-03-20T15:55:24.544Z,73.20
2023-03-20T16:02:22.111Z,74.00
2023-03-20T16:13:16.736Z,74.00
2023-03-20T16:16:12.853Z,74.00
2023-03-20T16:19:58.745Z,74.40
2023-03-20T16:23:17.071Z,74.30
2023-03-20T16:36:32.217Z,74.40
2023-03-20T16:39:11.390Z,74.90
2023-03-20T16:41:53.275Z,74.70
2023-03-20T16:45:00.895Z,74.90
2023-03-20T16:48:07.968Z,75.00
2023-03-20T16:50:50.878Z,74.90
2023-03-20T16:53:47.246Z,75.00
2023-03-20T16:56:38.730Z,74.90
2023-03-20T16:59:21.474Z,75.10
2023-03-20T17:02:15.876Z,75.00
2023-03-20T17:09:31.352Z,75.10
2023-03-20T17:13:05.501Z,75.00
2023-03-20T17:47:59.266Z,75.10
2023-03-20T17:59:52.744Z,75.00
2023-03-20T18:02:26.941Z,75.70
2023-03-20T18:04:59.649Z,75.60
2023-03-20T18:07:49.577Z,75.70
2023-03-20T18:17:32.423Z,75.90
2023-03-20T18:55:48.926Z,74.30
2023-03-20T18:58:40.072Z,74.70
2023-03-20T19:09:41.356Z,74.80
2023-03-20T19:29:23.651Z,74.80
2023-03-20T19:37:01.165Z,74.40
2023-03-20T19:51:52.592Z,73.90
2023-03-20T19:55:01.628Z,74.30
2023-03-20T19:57:44.357Z,74.20
2023-03-20T20:08:28.591Z,74.00
2023-03-20T20:17:13.903Z,73.40
2023-03-20T20:19:52.164Z,73.60
2023-03-20T20:41:08.609Z,73.90
2023-03-20T21:18:56.430Z,74.80
2023-03-20T21:22:04.461Z,75.10
2023-03-20T21:25:13.800Z,74.80
2023-03-20T21:27:51.528Z,75.00
2023-03-20T21:33:13.945Z,75.00
2023-03-20T21:36:23.565Z,75.30
2023-03-20T21:39:08.413Z,75.30
2023-03-20T21:42:00.846Z,75.50
2023-03-20T21:53:25.801Z,74.80
2023-03-20T22:02:48.924Z,74.80
2023-03-20T22:06:47.763Z,75.20
2023-03-20T22:18:50.891Z,75.10
2023-03-20T22:24:56.548Z,75.20
2023-03-20T22:31:19.361Z,75.20
2023-03-20T22:40:15.064Z,75.00
2023-03-20T22:46:39.943Z,75.40
2023-03-20T22:52:23.026Z,75.60
2023-03-20T22:55:15.161Z,75.20
2023-03-20T22:58:04.064Z,75.10
2023-03-20T23:00:56.499Z,75.30
2023-03-20T23:03:42.272Z,75.50
2023-03-20T23:06:16.208Z,75.90
2023-03-20T23:08:55.419Z,75.70
2023-03-20T23:11:45.578Z,75.60
2023-03-20T23:14:28.467Z,76.20
2023-03-20T23:17:16.724Z,76.00
2023-03-20T23:20:10.477Z,76.10
2023-03-20T23:22:52.434Z,75.50
2023-03-20T23:25:47.133Z,76.00
2023-03-20T23:28:20.208Z,76.10
2023-03-20T23:31:10.394Z,75.90
2023-03-20T23:33:54.662Z,76.10
2023-03-20T23:37:33.104Z,75.80
2023-03-20T23:40:02.856Z,76.10
2023-03-20T23:42:31.605Z,76.00
2023-03-20T23:45:20.601Z,75.90
2023-03-20T23:48:02.446Z,75.80
2023-03-20T23:50:56.858Z,75.60
2023-03-20T23:53:44.496Z,75.80
2023-03-20T23:56:22.690Z,75.70
2023-03-20T23:59:20.244Z,75.70
